Time;durP1;ratioP1;P1;durP2;ratioP2;P2;SDS_P1;SDS_P2;PMS_P1;PMS_P2;Temp;Humidity;BMP_temperature;BMP_pressure;BME280_temperature;BME280_humidity;BME280_pressure;Samples;Min_cycle;Max_cycle;Signal;HPM_P1;HPM_P2
2022/07/08 00:00:05;;;;;;;0.73;0.73;;;;;;;;;;4976762;28;20019;-80
2022/07/08 00:02:34;;;;;;;0.10;0.10;;;;;;;;;;4976757;28;20096;-79
2022/07/08 00:05:04;;;;;;;0.30;0.30;;;;;;;;;;4976903;28;20047;-76
2022/07/08 00:07:29;;;;;;;0.10;0.10;;;;;;;;;;4975844;28;20035;-78
2022/07/08 00:09:54;;;;;;;0.30;0.25;;;;;;;;;;4976539;28;20519;-78
2022/07/08 00:12:22;;;;;;;0.47;0.32;;;;;;;;;;4975881;28;20028;-79
2022/07/08 00:14:47;;;;;;;0.10;0.10;;;;;;;;;;4976264;28;20031;-79
2022/07/08 00:17:13;;;;;;;0.25;0.20;;;;;;;;;;4974607;28;20038;-79
2022/07/08 00:19:38;;;;;;;0.10;0.10;;;;;;;;;;4976208;28;20413;-79
2022/07/08 00:22:03;;;;;;;0.10;0.10;;;;;;;;;;4976202;28;20040;-79
2022/07/08 00:24:31;;;;;;;0.52;0.35;;;;;;;;;;4975438;28;20065;-79
2022/07/08 00:26:56;;;;;;;0.10;0.10;;;;;;;;;;4974529;28;20089;-79
2022/07/08 00:29:22;;;;;;;0.10;0.10;;;;;;;;;;4975448;28;20031;-79
2022/07/08 00:31:49;;;;;;;0.10;0.10;;;;;;;;;;4975370;28;20041;-79
2022/07/08 00:34:15;;;;;;;0.15;0.10;;;;;;;;;;4974757;28;20034;-80
2022/07/08 00:36:42;;;;;;;0.10;0.10;;;;;;;;;;4975500;28;20035;-79
2022/07/08 00:39:10;;;;;;;1.38;0.85;;;;;;;;;;4975866;28;20030;-79
2022/07/08 00:41:35;;;;;;;2.20;0.65;;;;;;;;;;4975146;28;20037;-79
2022/07/08 00:44:03;;;;;;;0.08;0.08;;;;;;;;;;4974824;28;20030;-79
2022/07/08 00:46:31;;;;;;;0.13;0.13;;;;;;;;;;4975900;28;20022;-76
2022/07/08 00:48:56;;;;;;;2.72;0.70;;;;;;;;;;4975057;28;20054;-78
2022/07/08 00:51:21;;;;;;;3.03;0.30;;;;;;;;;;4971019;28;20542;-78
2022/07/08 00:53:51;;;;;;;0.10;0.10;;;;;;;;;;4955580;28;20035;-78
2022/07/08 00:56:19;;;;;;;2.30;0.65;;;;;;;;;;4956675;28;20509;-78
2022/07/08 00:58:50;;;;;;;0.88;0.65;;;;;;;;;;4972654;28;20026;-79
2022/07/08 01:01:16;;;;;;;0.10;0.10;;;;;;;;;;4973666;28;20023;-78
2022/07/08 01:03:44;;;;;;;0.20;0.20;;;;;;;;;;4974443;28;20060;-78
2022/07/08 01:06:09;;;;;;;2.53;1.02;;;;;;;;;;4974255;28;20211;-78
2022/07/08 01:08:35;;;;;;;1.13;0.75;;;;;;;;;;4973517;28;20045;-79
2022/07/08 01:11:00;;;;;;;0.00;0.00;;;;;;;;;;4973935;28;20030;-79
2022/07/08 01:13:26;;;;;;;1.40;0.60;;;;;;;;;;4974730;28;20031;-78
2022/07/08 01:15:51;;;;;;;0.10;0.10;;;;;;;;;;4974230;28;20030;-79
2022/07/08 01:18:27;;;;;;;3.13;0.63;;;;;;;;;;4974217;28;20030;-78
2022/07/08 01:20:52;;;;;;;3.10;0.68;;;;;;;;;;4975390;28;20467;-79
2022/07/08 01:23:18;;;;;;;1.45;0.63;;;;;;;;;;4973751;28;20035;-80
2022/07/08 01:25:44;;;;;;;0.00;0.00;;;;;;;;;;4974582;28;20026;-79
2022/07/08 01:28:09;;;;;;;0.15;0.15;;;;;;;;;;4963912;28;20126;-79
2022/07/08 01:30:37;;;;;;;0.00;0.00;;;;;;;;;;4973665;28;20479;-80
2022/07/08 01:33:02;;;;;;;0.43;0.28;;;;;;;;;;4974827;28;20088;-79
2022/07/08 01:35:28;;;;;;;0.05;0.05;;;;;;;;;;4973699;28;20504;-79
2022/07/08 01:37:53;;;;;;;3.95;1.35;;;;;;;;;;4971040;28;20336;-79
2022/07/08 01:40:19;;;;;;;0.93;0.15;;;;;;;;;;4974309;28;20357;-79
2022/07/08 01:42:46;;;;;;;0.10;0.10;;;;;;;;;;4974867;28;20026;-77
2022/07/08 01:45:12;;;;;;;0.00;0.00;;;;;;;;;;4974836;28;20038;-78
2022/07/08 01:47:37;;;;;;;3.00;0.13;;;;;;;;;;4975979;28;20384;-80
2022/07/08 01:50:05;;;;;;;0.45;0.30;;;;;;;;;;4977655;28;20030;-79
2022/07/08 01:52:31;;;;;;;0.00;0.00;;;;;;;;;;4978230;28;20073;-80
2022/07/08 01:54:56;;;;;;;0.20;0.20;;;;;;;;;;4977566;28;20396;-80
2022/07/08 01:57:21;;;;;;;0.03;0.03;;;;;;;;;;4978255;28;20066;-77
2022/07/08 01:59:49;;;;;;;0.40;0.40;;;;;;;;;;4980352;28;20492;-79
2022/07/08 02:02:16;;;;;;;10.73;0.15;;;;;;;;;;4974430;28;20030;-78
2022/07/08 02:04:46;;;;;;;0.20;0.20;;;;;;;;;;4972072;28;20437;-79
2022/07/08 02:07:12;;;;;;;0.00;0.00;;;;;;;;;;4977051;28;20031;-78
2022/07/08 02:09:38;;;;;;;0.00;0.00;;;;;;;;;;4976032;28;20031;-78
2022/07/08 02:12:19;;;;;;;0.10;0.10;;;;;;;;;;4978102;28;20113;-78
2022/07/08 02:15:07;;;;;;;3.20;1.17;;;;;;;;;;4959639;28;20031;-78
2022/07/08 02:17:38;;;;;;;0.10;0.10;;;;;;;;;;4975205;28;20377;-77
2022/07/08 02:20:21;;;;;;;0.00;0.00;;;;;;;;;;4977252;28;20085;-80
2022/07/08 02:22:46;;;;;;;5.57;0.73;;;;;;;;;;4975462;28;20125;-78
2022/07/08 02:25:12;;;;;;;0.10;0.00;;;;;;;;;;4977077;28;20399;-78
2022/07/08 02:27:37;;;;;;;0.90;0.63;;;;;;;;;;4976986;28;20460;-77
2022/07/08 02:30:03;;;;;;;0.20;0.10;;;;;;;;;;4977561;28;20035;-78
2022/07/08 02:32:28;;;;;;;0.38;0.30;;;;;;;;;;4978022;28;20041;-79
2022/07/08 02:34:53;;;;;;;0.20;0.17;;;;;;;;;;4977097;28;20027;-78
2022/07/08 02:37:24;;;;;;;0.10;0.10;;;;;;;;;;4976911;28;20027;-78
2022/07/08 02:39:51;;;;;;;0.28;0.25;;;;;;;;;;4975173;28;20023;-78
2022/07/08 02:42:20;;;;;;;0.15;0.15;;;;;;;;;;4978223;28;20035;-79
2022/07/08 02:44:45;;;;;;;0.10;0.10;;;;;;;;;;4981451;28;20026;-78
2022/07/08 02:47:10;;;;;;;0.28;0.25;;;;;;;;;;4979448;28;20041;-77
2022/07/08 02:49:36;;;;;;;0.68;0.65;;;;;;;;;;4973612;28;20110;-78
2022/07/08 02:52:01;;;;;;;0.30;0.30;;;;;;;;;;4980736;28;20045;-79
2022/07/08 02:54:27;;;;;;;0.55;0.52;;;;;;;;;;4984944;28;20114;-80
2022/07/08 02:56:52;;;;;;;0.00;0.00;;;;;;;;;;4991730;28;20027;-78
2022/07/08 02:59:17;;;;;;;0.13;0.13;;;;;;;;;;4989728;28;20157;-79
2022/07/08 03:01:42;;;;;;;0.65;0.55;;;;;;;;;;4982642;28;20507;-78
2022/07/08 03:04:10;;;;;;;2.38;1.00;;;;;;;;;;4995633;28;20108;-79
2022/07/08 03:06:38;;;;;;;0.03;0.03;;;;;;;;;;4985719;28;20041;-77
2022/07/08 03:09:03;;;;;;;0.17;0.17;;;;;;;;;;4975512;28;20031;-79
2022/07/08 03:11:29;;;;;;;0.03;0.03;;;;;;;;;;4976538;28;20052;-78
2022/07/08 03:13:56;;;;;;;0.20;0.20;;;;;;;;;;4977147;28;20022;-79
2022/07/08 03:16:24;;;;;;;0.45;0.40;;;;;;;;;;4983234;28;20050;-79
2022/07/08 03:18:52;;;;;;;0.10;0.10;;;;;;;;;;4976890;28;20456;-78
2022/07/08 03:21:17;;;;;;;10.68;0.55;;;;;;;;;;4978390;28;20457;-77
2022/07/08 03:23:42;;;;;;;0.63;0.15;;;;;;;;;;4976861;28;20034;-79
2022/07/08 03:26:08;;;;;;;0.10;0.10;;;;;;;;;;4980277;28;20359;-79
2022/07/08 03:28:33;;;;;;;0.28;0.28;;;;;;;;;;4975930;28;20420;-79
2022/07/08 03:30:58;;;;;;;0.63;0.28;;;;;;;;;;4977423;28;20140;-79
2022/07/08 03:33:24;;;;;;;0.65;0.20;;;;;;;;;;4976146;28;20030;-78
2022/07/08 03:35:49;;;;;;;0.75;0.43;;;;;;;;;;4976946;28;20038;-79
2022/07/08 03:38:17;;;;;;;0.00;0.00;;;;;;;;;;4976593;28;20034;-78
2022/07/08 03:43:26;;;;;;;6.50;0.40;;;;;;;;;;4957939;29;20070;-79
2022/07/08 03:45:52;;;;;;;0.70;0.20;;;;;;;;;;4975952;28;20042;-78
2022/07/08 03:48:17;;;;;;;1.23;0.90;;;;;;;;;;4975536;28;20129;-78
2022/07/08 03:50:43;;;;;;;0.57;0.57;;;;;;;;;;4976845;28;20027;-78
2022/07/08 03:53:08;;;;;;;0.00;0.00;;;;;;;;;;4975316;28;20031;-79
2022/07/08 03:55:34;;;;;;;0.10;0.10;;;;;;;;;;4976575;28;20054;-78
2022/07/08 03:58:01;;;;;;;0.05;0.05;;;;;;;;;;4975634;28;20449;-77
2022/07/08 04:00:27;;;;;;;0.00;0.00;;;;;;;;;;4973361;28;20121;-79
2022/07/08 04:02:52;;;;;;;2.58;0.45;;;;;;;;;;4967547;28;20458;-77
2022/07/08 04:05:20;;;;;;;0.88;0.82;;;;;;;;;;4972699;28;20030;-78
2022/07/08 04:07:48;;;;;;;0.03;0.03;;;;;;;;;;4991163;28;20041;-77
2022/07/08 04:10:13;;;;;;;0.10;0.00;;;;;;;;;;4974315;28;20027;-77
2022/07/08 04:12:41;;;;;;;1.65;0.43;;;;;;;;;;4975836;28;20046;-78
2022/07/08 04:15:07;;;;;;;0.25;0.25;;;;;;;;;;4994996;28;20022;-76
2022/07/08 04:17:33;;;;;;;0.10;0.10;;;;;;;;;;4976007;28;20023;-77
2022/07/08 04:20:03;;;;;;;0.15;0.15;;;;;;;;;;4974337;28;20460;-78
2022/07/08 04:22:29;;;;;;;0.00;0.00;;;;;;;;;;4977735;28;20452;-78
2022/07/08 04:24:59;;;;;;;0.70;0.45;;;;;;;;;;4974894;28;20054;-78
2022/07/08 04:27:24;;;;;;;0.05;0.05;;;;;;;;;;4976084;28;20034;-78
2022/07/08 04:29:49;;;;;;;0.57;0.43;;;;;;;;;;4973378;28;20041;-78
2022/07/08 04:32:14;;;;;;;0.30;0.10;;;;;;;;;;4974971;28;20178;-77
2022/07/08 04:34:40;;;;;;;0.47;0.47;;;;;;;;;;4981571;28;20038;-78
2022/07/08 04:37:05;;;;;;;2.10;0.63;;;;;;;;;;4975531;28;20035;-77
2022/07/08 04:39:33;;;;;;;0.00;0.00;;;;;;;;;;4981454;28;20356;-77
2022/07/08 04:41:58;;;;;;;0.32;0.32;;;;;;;;;;4975643;28;20027;-77
2022/07/08 04:44:24;;;;;;;0.00;0.00;;;;;;;;;;4975600;28;20046;-77
2022/07/08 04:46:49;;;;;;;0.43;0.25;;;;;;;;;;4975225;28;20030;-77
2022/07/08 04:49:16;;;;;;;0.15;0.15;;;;;;;;;;4989554;28;20026;-78
2022/07/08 04:51:41;;;;;;;0.30;0.30;;;;;;;;;;4978211;28;20388;-77
2022/07/08 04:54:11;;;;;;;0.55;0.45;;;;;;;;;;4972846;28;20022;-78
2022/07/08 04:56:37;;;;;;;0.98;0.28;;;;;;;;;;4974829;28;20113;-77
2022/07/08 04:59:02;;;;;;;0.85;0.68;;;;;;;;;;4958240;28;20126;-78
2022/07/08 05:01:27;;;;;;;1.60;0.95;;;;;;;;;;4973387;28;20461;-77
2022/07/08 05:03:54;;;;;;;0.35;0.35;;;;;;;;;;4959318;28;20126;-78
2022/07/08 05:06:19;;;;;;;1.55;0.75;;;;;;;;;;4973917;28;20042;-77
2022/07/08 05:08:44;;;;;;;0.28;0.13;;;;;;;;;;4975641;28;20027;-78
2022/07/08 05:11:12;;;;;;;0.40;0.30;;;;;;;;;;4976662;28;20045;-78
2022/07/08 05:13:37;;;;;;;0.45;0.45;;;;;;;;;;4995091;28;20030;-77
2022/07/08 05:16:05;;;;;;;0.85;0.15;;;;;;;;;;4975469;28;20475;-77
2022/07/08 05:18:30;;;;;;;0.08;0.08;;;;;;;;;;4974047;28;20461;-78
2022/07/08 05:20:56;;;;;;;0.57;0.22;;;;;;;;;;4974800;28;20031;-79
2022/07/08 05:23:24;;;;;;;2.28;0.22;;;;;;;;;;4974723;28;20110;-78
2022/07/08 05:25:51;;;;;;;0.30;0.25;;;;;;;;;;4974982;28;20515;-78
2022/07/08 05:28:16;;;;;;;0.40;0.40;;;;;;;;;;4975182;28;20066;-79
2022/07/08 05:30:47;;;;;;;0.10;0.10;;;;;;;;;;4983795;28;20536;-77
2022/07/08 05:33:12;;;;;;;0.00;0.00;;;;;;;;;;4975226;28;20390;-78
2022/07/08 05:35:42;;;;;;;0.03;0.03;;;;;;;;;;4974977;28;20046;-77
2022/07/08 05:38:07;;;;;;;0.50;0.43;;;;;;;;;;4977993;28;20023;-78
2022/07/08 05:40:32;;;;;;;0.13;0.13;;;;;;;;;;4973793;28;20029;-79
2022/07/08 05:42:58;;;;;;;0.35;0.35;;;;;;;;;;4974223;28;20034;-78
2022/07/08 05:45:26;;;;;;;3.30;0.70;;;;;;;;;;4974907;28;20023;-79
2022/07/08 05:47:51;;;;;;;0.20;0.20;;;;;;;;;;4991394;28;20087;-79
2022/07/08 05:50:16;;;;;;;2.00;0.30;;;;;;;;;;4980734;28;20049;-78
2022/07/08 05:52:42;;;;;;;0.03;0.03;;;;;;;;;;4965648;28;20113;-77
2022/07/08 05:55:07;;;;;;;0.45;0.45;;;;;;;;;;4977964;28;20109;-77
2022/07/08 05:57:33;;;;;;;0.20;0.20;;;;;;;;;;4993923;28;20037;-78
2022/07/08 05:59:58;;;;;;;0.32;0.32;;;;;;;;;;4986187;28;20035;-71
2022/07/08 06:02:23;;;;;;;0.10;0.10;;;;;;;;;;4982674;28;20238;-72
2022/07/08 06:04:51;;;;;;;0.20;0.20;;;;;;;;;;4989465;28;20030;-72
2022/07/08 06:07:16;;;;;;;0.10;0.10;;;;;;;;;;4978106;28;20018;-71
2022/07/08 06:09:42;;;;;;;0.20;0.20;;;;;;;;;;4994792;28;20036;-71
2022/07/08 06:12:07;;;;;;;0.30;0.30;;;;;;;;;;4965623;28;20081;-71
2022/07/08 06:14:33;;;;;;;1.00;0.20;;;;;;;;;;4990938;28;20069;-72
2022/07/08 06:16:58;;;;;;;0.00;0.00;;;;;;;;;;4986141;28;20440;-72
2022/07/08 06:19:26;;;;;;;0.45;0.45;;;;;;;;;;4974766;28;20363;-71
2022/07/08 06:21:51;;;;;;;0.43;0.30;;;;;;;;;;4973878;28;20046;-72
2022/07/08 06:24:22;;;;;;;0.10;0.10;;;;;;;;;;4962999;28;20038;-72
2022/07/08 06:26:48;;;;;;;1.20;0.60;;;;;;;;;;4974204;28;20085;-72
2022/07/08 06:29:13;;;;;;;0.17;0.17;;;;;;;;;;4974581;28;20034;-72
2022/07/08 06:31:38;;;;;;;4.07;0.68;;;;;;;;;;4974918;28;20018;-72
2022/07/08 06:34:04;;;;;;;0.32;0.10;;;;;;;;;;4981386;28;20042;-71
2022/07/08 06:36:32;;;;;;;0.20;0.10;;;;;;;;;;4976131;28;20411;-72
2022/07/08 06:39:00;;;;;;;0.10;0.10;;;;;;;;;;4983216;28;20177;-72
2022/07/08 06:41:25;;;;;;;0.45;0.45;;;;;;;;;;4978909;28;20026;-72
2022/07/08 06:43:53;;;;;;;0.10;0.10;;;;;;;;;;4978296;28;20089;-72
2022/07/08 06:46:18;;;;;;;0.00;0.00;;;;;;;;;;4978134;28;20030;-72
2022/07/08 06:48:44;;;;;;;1.98;0.80;;;;;;;;;;4977715;28;20560;-72
2022/07/08 06:51:12;;;;;;;0.32;0.32;;;;;;;;;;4977173;28;20035;-72
2022/07/08 06:54:38;;;;;;;0.57;0.43;;;;;;;;;;4983482;28;20455;-72
2022/07/08 06:56:33;;;;;;;0.63;0.20;;;;;;;;;;4964555;28;20121;-72
2022/07/08 06:59:01;;;;;;;1.55;0.20;;;;;;;;;;4977696;28;20511;-71
2022/07/08 07:01:29;;;;;;;0.15;0.10;;;;;;;;;;4968622;28;20463;-71
2022/07/08 07:03:55;;;;;;;0.43;0.28;;;;;;;;;;4977648;28;20471;-72
2022/07/08 07:06:23;;;;;;;0.47;0.47;;;;;;;;;;4975205;28;20022;-71
2022/07/08 07:08:48;;;;;;;0.38;0.10;;;;;;;;;;4978005;28;20344;-71
2022/07/08 07:11:13;;;;;;;0.40;0.40;;;;;;;;;;4975123;28;20029;-71
2022/07/08 07:13:39;;;;;;;4.30;1.02;;;;;;;;;;4965871;28;20085;-71
2022/07/08 07:16:04;;;;;;;1.00;0.38;;;;;;;;;;4972905;28;20365;-71
2022/07/08 07:18:34;;;;;;;0.45;0.40;;;;;;;;;;4977441;28;20330;-71
2022/07/08 07:21:00;;;;;;;0.52;0.40;;;;;;;;;;4975135;28;20109;-71
2022/07/08 07:23:25;;;;;;;0.10;0.10;;;;;;;;;;4977773;28;20110;-71
2022/07/08 07:25:50;;;;;;;0.38;0.20;;;;;;;;;;4977674;28;20503;-71
2022/07/08 07:28:16;;;;;;;0.55;0.55;;;;;;;;;;4975519;28;20105;-72
2022/07/08 07:30:41;;;;;;;0.05;0.05;;;;;;;;;;4976687;28;20077;-71
2022/07/08 07:33:06;;;;;;;0.82;0.60;;;;;;;;;;4974336;28;20023;-71
2022/07/08 07:35:35;;;;;;;0.20;0.20;;;;;;;;;;4978120;28;20026;-71
2022/07/08 07:38:00;;;;;;;0.10;0.00;;;;;;;;;;4978767;28;20368;-71
2022/07/08 07:40:28;;;;;;;0.10;0.10;;;;;;;;;;4976163;28;20022;-71
2022/07/08 07:42:54;;;;;;;0.47;0.28;;;;;;;;;;4977253;28;20027;-71
2022/07/08 07:45:19;;;;;;;0.20;0.20;;;;;;;;;;4975027;28;20038;-71
2022/07/08 07:47:45;;;;;;;0.13;0.13;;;;;;;;;;4976360;28;20023;-72
2022/07/08 07:50:12;;;;;;;0.00;0.00;;;;;;;;;;4977089;28;20035;-72
2022/07/08 07:52:38;;;;;;;5.75;0.50;;;;;;;;;;4975214;28;20114;-72
2022/07/08 07:55:03;;;;;;;2.08;0.40;;;;;;;;;;4976252;28;20106;-71
2022/07/08 07:57:33;;;;;;;2.17;0.50;;;;;;;;;;4974308;28;20076;-72
2022/07/08 08:00:01;;;;;;;2.20;1.20;;;;;;;;;;4976058;28;20058;-72
2022/07/08 08:02:26;;;;;;;1.33;0.50;;;;;;;;;;4976673;28;20085;-72
2022/07/08 08:04:52;;;;;;;0.77;0.40;;;;;;;;;;4973240;28;20348;-71
2022/07/08 08:07:17;;;;;;;0.28;0.28;;;;;;;;;;4975950;28;20030;-72
2022/07/08 08:09:42;;;;;;;0.40;0.30;;;;;;;;;;4973734;28;20068;-72
2022/07/08 08:12:08;;;;;;;1.65;0.70;;;;;;;;;;4974898;28;20053;-71
2022/07/08 08:14:33;;;;;;;0.52;0.47;;;;;;;;;;4974671;28;20122;-72
2022/07/08 08:16:58;;;;;;;0.68;0.38;;;;;;;;;;4977327;28;20030;-72
2022/07/08 08:19:24;;;;;;;19.85;0.88;;;;;;;;;;4976003;28;20042;-71
2022/07/08 08:21:51;;;;;;;0.57;0.30;;;;;;;;;;4975487;28;20031;-71
2022/07/08 08:24:19;;;;;;;0.63;0.52;;;;;;;;;;4972788;28;20027;-71
2022/07/08 08:26:46;;;;;;;1.00;0.65;;;;;;;;;;4973651;28;20038;-71
2022/07/08 08:29:11;;;;;;;0.20;0.20;;;;;;;;;;4972927;28;20031;-71
2022/07/08 08:31:36;;;;;;;0.47;0.30;;;;;;;;;;4970844;28;20031;-72
2022/07/08 08:34:11;;;;;;;0.10;0.10;;;;;;;;;;4974799;28;20026;-73
2022/07/08 08:36:36;;;;;;;1.15;0.40;;;;;;;;;;4974884;28;20034;-72
2022/07/08 08:39:02;;;;;;;0.65;0.52;;;;;;;;;;4974311;28;20449;-72
2022/07/08 08:41:27;;;;;;;0.10;0.10;;;;;;;;;;4974449;28;20157;-72
2022/07/08 08:43:53;;;;;;;0.20;0.20;;;;;;;;;;4969353;28;20049;-72
2022/07/08 08:46:22;;;;;;;0.52;0.50;;;;;;;;;;4974566;28;20124;-74
2022/07/08 08:48:50;;;;;;;0.20;0.17;;;;;;;;;;4962457;28;20126;-74
2022/07/08 08:51:20;;;;;;;0.20;0.20;;;;;;;;;;4971934;28;20037;-75
2022/07/08 08:53:47;;;;;;;1.65;0.20;;;;;;;;;;4955463;28;20437;-75
2022/07/08 08:56:14;;;;;;;1.15;0.40;;;;;;;;;;4966200;28;20081;-76
2022/07/08 08:58:41;;;;;;;0.20;0.20;;;;;;;;;;4975024;28;20116;-75
2022/07/08 09:01:07;;;;;;;0.30;0.30;;;;;;;;;;4974386;28;20014;-75
2022/07/08 09:03:33;;;;;;;0.10;0.10;;;;;;;;;;4975648;28;20031;-75
2022/07/08 09:05:58;;;;;;;1.65;0.52;;;;;;;;;;4973697;28;20033;-75
2022/07/08 09:08:26;;;;;;;0.20;0.20;;;;;;;;;;4975400;28;20365;-75
2022/07/08 09:10:56;;;;;;;0.68;0.68;;;;;;;;;;4971267;28;20118;-75
2022/07/08 09:13:25;;;;;;;0.50;0.50;;;;;;;;;;4975046;28;20069;-73
2022/07/08 09:15:53;;;;;;;0.70;0.30;;;;;;;;;;4970387;28;20110;-74
2022/07/08 09:18:20;;;;;;;0.40;0.38;;;;;;;;;;4971340;28;20030;-74
2022/07/08 09:20:45;;;;;;;0.10;0.10;;;;;;;;;;4970303;28;20425;-74
2022/07/08 09:23:23;;;;;;;0.60;0.60;;;;;;;;;;4974074;28;20097;-74
2022/07/08 09:25:56;;;;;;;0.28;0.22;;;;;;;;;;4970782;28;20027;-73
2022/07/08 09:28:49;;;;;;;2.28;0.73;;;;;;;;;;4971756;28;20027;-74
2022/07/08 09:31:39;;;;;;;0.13;0.13;;;;;;;;;;4972817;28;20042;-75
2022/07/08 09:34:12;;;;;;;1.08;0.32;;;;;;;;;;4973350;28;20113;-75
2022/07/08 09:36:45;;;;;;;1.45;0.32;;;;;;;;;;4973024;28;20022;-74
2022/07/08 09:39:22;;;;;;;0.20;0.20;;;;;;;;;;4965015;28;20038;-75
2022/07/08 09:41:48;;;;;;;0.55;0.20;;;;;;;;;;4973892;28;20019;-80
2022/07/08 09:44:15;;;;;;;0.47;0.47;;;;;;;;;;4972493;28;20026;-75
2022/07/08 09:46:41;;;;;;;0.13;0.10;;;;;;;;;;4972305;28;20035;-75
2022/07/08 09:49:07;;;;;;;0.80;0.38;;;;;;;;;;4974763;28;20033;-75
2022/07/08 09:51:32;;;;;;;2.28;1.63;;;;;;;;;;4970988;28;20047;-76
2022/07/08 09:54:11;;;;;;;0.20;0.20;;;;;;;;;;4972635;28;20027;-75
2022/07/08 09:56:36;;;;;;;0.40;0.40;;;;;;;;;;4971254;28;20019;-76
2022/07/08 09:59:05;;;;;;;0.20;0.20;;;;;;;;;;4972744;28;20483;-75
2022/07/08 10:01:30;;;;;;;0.05;0.05;;;;;;;;;;4972524;28;20053;-75
2022/07/08 10:03:56;;;;;;;0.03;0.03;;;;;;;;;;4972634;28;20571;-76
2022/07/08 10:06:28;;;;;;;0.20;0.20;;;;;;;;;;4972654;28;20165;-78
2022/07/08 10:08:54;;;;;;;0.65;0.63;;;;;;;;;;4978094;28;20037;-75
2022/07/08 10:11:22;;;;;;;0.10;0.10;;;;;;;;;;4977500;28;20060;-75
2022/07/08 10:13:50;;;;;;;1.55;0.57;;;;;;;;;;4975585;28;20118;-78
2022/07/08 10:16:16;;;;;;;1.00;0.60;;;;;;;;;;4972243;28;20034;-78
2022/07/08 10:18:44;;;;;;;0.20;0.10;;;;;;;;;;4978383;28;20500;-78
2022/07/08 10:21:13;;;;;;;0.20;0.20;;;;;;;;;;4975649;28;20030;-76
2022/07/08 10:23:44;;;;;;;1.83;0.63;;;;;;;;;;4976218;28;20113;-77
2022/07/08 10:26:12;;;;;;;0.17;0.17;;;;;;;;;;4975142;28;20025;-75
2022/07/08 10:28:41;;;;;;;0.28;0.28;;;;;;;;;;4974678;28;20030;-77
2022/07/08 10:31:24;;;;;;;1.40;0.65;;;;;;;;;;4975951;28;20089;-75
2022/07/08 10:34:07;;;;;;;0.63;0.30;;;;;;;;;;4977639;28;20102;-76
2022/07/08 10:36:54;;;;;;;0.85;0.30;;;;;;;;;;4968220;28;20030;-77
2022/07/08 10:39:39;;;;;;;1.48;0.30;;;;;;;;;;4979903;28;20044;-75
2022/07/08 10:42:09;;;;;;;0.20;0.17;;;;;;;;;;4957725;28;20027;-77
2022/07/08 10:44:44;;;;;;;0.38;0.35;;;;;;;;;;4975643;28;20031;-76
2022/07/08 10:47:32;;;;;;;1.17;0.65;;;;;;;;;;4973608;28;20037;-75
2022/07/08 10:50:08;;;;;;;1.35;0.38;;;;;;;;;;4976598;28;20023;-75
2022/07/08 10:52:41;;;;;;;0.75;0.20;;;;;;;;;;4976209;28;20073;-75
2022/07/08 10:55:14;;;;;;;1.77;0.60;;;;;;;;;;4973293;28;20411;-75
2022/07/08 10:57:56;;;;;;;0.30;0.30;;;;;;;;;;4976447;28;20038;-75
2022/07/08 11:00:22;;;;;;;0.30;0.15;;;;;;;;;;4977514;28;20396;-78
2022/07/08 11:02:48;;;;;;;1.33;0.22;;;;;;;;;;4974338;28;20030;-74
2022/07/08 11:05:42;;;;;;;0.10;0.10;;;;;;;;;;4976098;28;20369;-74
2022/07/08 11:08:37;;;;;;;1.20;1.10;;;;;;;;;;4961043;28;20073;-74
2022/07/08 11:11:03;;;;;;;0.30;0.30;;;;;;;;;;4965728;28;20097;-75
2022/07/08 11:13:28;;;;;;;3.88;0.45;;;;;;;;;;4976103;28;20456;-75
2022/07/08 11:15:56;;;;;;;0.17;0.17;;;;;;;;;;4977157;28;20353;-75
2022/07/08 11:18:22;;;;;;;0.28;0.28;;;;;;;;;;4976400;28;20111;-74
2022/07/08 11:20:51;;;;;;;8.48;0.28;;;;;;;;;;4977359;28;20043;-74
2022/07/08 11:23:19;;;;;;;0.30;0.20;;;;;;;;;;4975157;28;20030;-75
2022/07/08 11:25:46;;;;;;;0.35;0.35;;;;;;;;;;4973728;28;20027;-75
2022/07/08 11:28:19;;;;;;;0.10;0.10;;;;;;;;;;4976830;28;20158;-74
2022/07/08 11:30:44;;;;;;;0.10;0.10;;;;;;;;;;4976502;28;20051;-76
2022/07/08 11:33:09;;;;;;;1.50;0.30;;;;;;;;;;4973937;28;20380;-74
2022/07/08 11:35:38;;;;;;;0.28;0.25;;;;;;;;;;4974336;28;20445;-75
2022/07/08 11:38:03;;;;;;;0.20;0.20;;;;;;;;;;4974789;28;20026;-76
2022/07/08 11:40:39;;;;;;;0.15;0.15;;;;;;;;;;4969681;28;20029;-75
2022/07/08 11:43:05;;;;;;;0.10;0.10;;;;;;;;;;4956377;28;20031;-74
2022/07/08 11:45:30;;;;;;;0.25;0.25;;;;;;;;;;4963345;28;20038;-73
2022/07/08 11:48:04;;;;;;;0.43;0.43;;;;;;;;;;4967560;28;20031;-75
2022/07/08 11:50:30;;;;;;;0.22;0.22;;;;;;;;;;4971847;28;20042;-76
2022/07/08 11:53:04;;;;;;;4.38;0.20;;;;;;;;;;4974592;28;20026;-76
2022/07/08 11:55:43;;;;;;;0.43;0.30;;;;;;;;;;4971807;28;20027;-79
2022/07/08 11:58:10;;;;;;;0.75;0.57;;;;;;;;;;4974053;28;20034;-72
2022/07/08 12:00:36;;;;;;;1.02;0.40;;;;;;;;;;4974195;28;20018;-71
2022/07/08 12:03:01;;;;;;;0.75;0.45;;;;;;;;;;4972947;28;20041;-72
2022/07/08 12:05:27;;;;;;;0.30;0.30;;;;;;;;;;4975998;28;20057;-72
2022/07/08 12:07:54;;;;;;;0.20;0.20;;;;;;;;;;4974523;28;20093;-72
2022/07/08 12:10:22;;;;;;;0.40;0.30;;;;;;;;;;4974904;28;20033;-73
2022/07/08 12:12:55;;;;;;;1.10;0.20;;;;;;;;;;4975121;28;20029;-72
2022/07/08 12:15:21;;;;;;;0.38;0.38;;;;;;;;;;4976151;28;20032;-73
2022/07/08 12:17:58;;;;;;;0.77;0.57;;;;;;;;;;4975359;28;20105;-72
2022/07/08 12:20:37;;;;;;;0.43;0.43;;;;;;;;;;4959058;28;20073;-72
2022/07/08 12:23:03;;;;;;;0.25;0.25;;;;;;;;;;4975596;28;20318;-72
2022/07/08 12:25:46;;;;;;;0.10;0.10;;;;;;;;;;4974945;28;20397;-72
2022/07/08 12:28:13;;;;;;;0.10;0.10;;;;;;;;;;4974083;28;20063;-72
2022/07/08 12:30:39;;;;;;;0.10;0.10;;;;;;;;;;4973613;28;20381;-72
2022/07/08 12:33:06;;;;;;;0.20;0.20;;;;;;;;;;4974666;28;20089;-72
2022/07/08 12:35:35;;;;;;;0.13;0.13;;;;;;;;;;4974178;28;20078;-72
2022/07/08 12:38:07;;;;;;;4.28;0.20;;;;;;;;;;4972189;28;20101;-72
2022/07/08 12:40:40;;;;;;;1.75;0.70;;;;;;;;;;4970202;28;20037;-72
2022/07/08 12:43:08;;;;;;;0.57;0.28;;;;;;;;;;4973815;28;20033;-72
2022/07/08 12:45:34;;;;;;;0.13;0.13;;;;;;;;;;4971131;28;20030;-72
2022/07/08 12:47:59;;;;;;;0.22;0.20;;;;;;;;;;4972955;28;20027;-71
2022/07/08 12:50:29;;;;;;;0.80;0.38;;;;;;;;;;4973929;28;20045;-72
2022/07/08 12:52:57;;;;;;;0.30;0.30;;;;;;;;;;4974183;28;20062;-70
2022/07/08 12:55:22;;;;;;;0.40;0.40;;;;;;;;;;4974559;28;20030;-70
2022/07/08 12:57:48;;;;;;;0.50;0.50;;;;;;;;;;4975136;28;20037;-70
2022/07/08 13:00:14;;;;;;;0.82;0.65;;;;;;;;;;4974249;28;20026;-70
2022/07/08 13:02:39;;;;;;;0.77;0.20;;;;;;;;;;4957707;28;20045;-70
2022/07/08 13:05:07;;;;;;;0.63;0.63;;;;;;;;;;4974892;28;20038;-70
2022/07/08 13:07:33;;;;;;;1.92;0.93;;;;;;;;;;4974468;28;20030;-71
2022/07/08 13:10:00;;;;;;;1.67;1.02;;;;;;;;;;4975117;28;20041;-70
2022/07/08 13:12:26;;;;;;;0.45;0.45;;;;;;;;;;4975249;28;20452;-70
2022/07/08 13:14:52;;;;;;;0.10;0.10;;;;;;;;;;4974112;28;20039;-70
2022/07/08 13:17:19;;;;;;;1.48;0.60;;;;;;;;;;4976179;28;20030;-70
2022/07/08 13:19:45;;;;;;;0.47;0.47;;;;;;;;;;4975733;28;20031;-70
2022/07/08 13:22:10;;;;;;;0.05;0.05;;;;;;;;;;4974483;28;20100;-69
2022/07/08 13:24:36;;;;;;;0.60;0.57;;;;;;;;;;4966408;28;20059;-70
2022/07/08 13:27:04;;;;;;;0.63;0.40;;;;;;;;;;4967956;28;20038;-70
2022/07/08 13:29:30;;;;;;;0.20;0.20;;;;;;;;;;4964415;28;20081;-70
2022/07/08 13:31:58;;;;;;;0.10;0.10;;;;;;;;;;4974758;28;20034;-69
2022/07/08 13:34:23;;;;;;;2.60;0.57;;;;;;;;;;4975246;28;20499;-70
2022/07/08 13:36:49;;;;;;;2.80;0.57;;;;;;;;;;4974558;28;20122;-70
2022/07/08 13:39:15;;;;;;;0.80;0.68;;;;;;;;;;4974341;28;20130;-71
2022/07/08 13:41:40;;;;;;;2.40;0.52;;;;;;;;;;4974463;28;20109;-70
2022/07/08 13:44:05;;;;;;;0.40;0.30;;;;;;;;;;4977936;28;20034;-70
2022/07/08 13:46:31;;;;;;;0.43;0.43;;;;;;;;;;4984117;28;20446;-70
2022/07/08 13:49:04;;;;;;;0.05;0.05;;;;;;;;;;4983276;28;20166;-70
2022/07/08 13:51:30;;;;;;;4.57;0.30;;;;;;;;;;4978411;28;20035;-70
2022/07/08 13:53:56;;;;;;;0.93;0.55;;;;;;;;;;4979222;28;20033;-70
2022/07/08 13:56:24;;;;;;;0.90;0.30;;;;;;;;;;4977981;28;20121;-70
2022/07/08 13:58:52;;;;;;;0.30;0.30;;;;;;;;;;4978260;28;20456;-70
2022/07/08 14:01:19;;;;;;;0.25;0.25;;;;;;;;;;4971145;28;20022;-70
2022/07/08 14:03:45;;;;;;;0.60;0.60;;;;;;;;;;4979252;28;20034;-70
2022/07/08 14:06:10;;;;;;;0.43;0.22;;;;;;;;;;4979199;28;20357;-70
2022/07/08 14:08:36;;;;;;;0.10;0.10;;;;;;;;;;4980103;28;20027;-84
2022/07/08 14:11:03;;;;;;;0.43;0.40;;;;;;;;;;4985725;28;20442;-83
2022/07/08 14:13:32;;;;;;;0.90;0.90;;;;;;;;;;4989041;28;20045;-83
2022/07/08 14:15:59;;;;;;;0.20;0.20;;;;;;;;;;4962302;28;20496;-82
2022/07/08 14:18:25;;;;;;;0.10;0.10;;;;;;;;;;4978235;28;20031;-82
2022/07/08 14:20:50;;;;;;;0.20;0.20;;;;;;;;;;4976884;28;20049;-83
2022/07/08 14:23:18;;;;;;;1.65;0.30;;;;;;;;;;4978637;28;20035;-81
2022/07/08 14:25:43;;;;;;;2.90;1.10;;;;;;;;;;4985400;28;20345;-83
2022/07/08 14:28:13;;;;;;;0.68;0.40;;;;;;;;;;4998139;28;20028;-82
2022/07/08 14:30:42;;;;;;;0.43;0.25;;;;;;;;;;4987482;28;20027;-85
2022/07/08 14:33:19;;;;;;;0.30;0.30;;;;;;;;;;4977718;28;20034;-80
2022/07/08 14:35:44;;;;;;;0.73;0.28;;;;;;;;;;4977657;28;20033;-83
2022/07/08 14:38:12;;;;;;;1.77;0.50;;;;;;;;;;4977741;28;20142;-84
2022/07/08 14:40:39;;;;;;;0.10;0.10;;;;;;;;;;4976869;28;20065;-84
2022/07/08 14:43:05;;;;;;;0.43;0.43;;;;;;;;;;4988341;28;20054;-84
2022/07/08 14:45:34;;;;;;;0.30;0.28;;;;;;;;;;4979640;28;20077;-83
2022/07/08 14:48:00;;;;;;;0.17;0.17;;;;;;;;;;4978757;28;20037;-82